createdAt,value
2022-10-04T00:03:47.368Z,5.72
2022-10-04T00:08:54.509Z,9.77
2022-10-04T00:13:59.447Z,13.32
2022-10-04T00:19:26.733Z,9.57
2022-10-04T00:24:31.366Z,13.60
2022-10-04T00:29:38.889Z,8.88
2022-10-04T00:39:59.561Z,6.20
2022-10-04T00:45:04.669Z,8.07
2022-10-04T00:50:24.121Z,4.68
2022-10-04T00:55:35.458Z,4.25
2022-10-04T01:00:38.711Z,4.88
2022-10-04T01:05:44.973Z,7.03
2022-10-04T01:11:13.457Z,7.85
2022-10-04T01:16:20.487Z,7.47
2022-10-04T01:21:32.232Z,6.38
2022-10-04T01:26:36.409Z,4.65
2022-10-04T01:31:45.480Z,9.05
2022-10-04T01:36:49.993Z,6.00
2022-10-04T01:42:03.445Z,4.50
2022-10-04T01:47:09.993Z,7.60
2022-10-04T01:52:18.478Z,6.17
2022-10-04T01:57:25.458Z,4.30
2022-10-04T02:02:46.708Z,7.05
2022-10-04T02:07:49.826Z,3.65
2022-10-04T02:12:54.757Z,4.55
2022-10-04T02:17:57.463Z,5.78
2022-10-04T02:23:03.331Z,7.95
2022-10-04T02:28:10.991Z,6.82
2022-10-04T02:33:13.477Z,6.60
2022-10-04T02:38:23.926Z,6.22
2022-10-04T02:43:29.266Z,6.57
2022-10-04T02:48:54.437Z,7.75
2022-10-04T02:54:12.647Z,9.95
2022-10-04T02:59:17.002Z,7.93
2022-10-04T03:04:21.423Z,9.93
2022-10-04T03:09:29.474Z,7.22
2022-10-04T03:14:32.641Z,6.38
2022-10-04T03:19:37.334Z,3.33
2022-10-04T03:24:54.494Z,6.10
2022-10-04T03:29:59.512Z,9.40
2022-10-04T03:35:05.108Z,7.10
2022-10-04T03:40:10.238Z,14.35
2022-10-04T03:45:15.879Z,6.60
2022-10-04T03:50:27.602Z,6.70
2022-10-04T03:55:35.370Z,8.35
2022-10-04T04:00:43.064Z,8.02
2022-10-04T04:05:53.042Z,9.57
2022-10-04T04:10:57.156Z,8.40
2022-10-04T04:16:01.842Z,9.77
2022-10-04T04:21:06.314Z,11.48
2022-10-04T04:26:35.907Z,19.48
2022-10-04T04:31:44.884Z,13.18
2022-10-04T04:36:47.407Z,15.90
2022-10-04T04:41:50.921Z,11.93
2022-10-04T04:47:00.554Z,9.25
2022-10-04T04:52:03.838Z,8.15
2022-10-04T04:57:06.403Z,6.60
2022-10-04T05:02:30.815Z,5.85
2022-10-04T05:07:33.193Z,11.95
2022-10-04T05:12:35.484Z,9.52
2022-10-04T05:17:37.804Z,8.55
2022-10-04T05:22:42.390Z,5.53
2022-10-04T05:27:45.390Z,6.70
2022-10-04T05:33:06.752Z,5.32
2022-10-04T05:38:34.023Z,8.52
2022-10-04T05:43:38.681Z,5.30
2022-10-04T05:48:43.327Z,7.97
2022-10-04T05:53:46.573Z,7.18
2022-10-04T05:59:10.473Z,10.68
2022-10-04T06:04:57.532Z,11.52
2022-10-04T06:10:12.656Z,7.78
2022-10-04T06:15:46.028Z,7.80
2022-10-04T06:21:13.352Z,9.35
2022-10-04T06:26:25.660Z,6.30
2022-10-04T06:31:36.910Z,6.95
2022-10-04T06:36:57.325Z,6.30
2022-10-04T06:42:08.449Z,5.95
2022-10-04T06:47:24.657Z,5.85
2022-10-04T06:52:30.992Z,6.03
2022-10-04T06:58:08.702Z,9.23
2022-10-04T07:03:15.491Z,7.20
2022-10-04T07:08:36.817Z,5.30
2022-10-04T07:13:49.286Z,4.70
2022-10-04T07:19:29.170Z,6.82
2022-10-04T07:24:51.476Z,4.35
2022-10-04T07:29:55.987Z,3.20
2022-10-04T07:35:00.401Z,1.90
2022-10-04T07:40:18.021Z,6.13
2022-10-04T07:45:26.805Z,1.40
2022-10-04T07:50:38.847Z,3.90
2022-10-04T07:56:00.050Z,2.97
2022-10-04T08:01:10.256Z,1.40
2022-10-04T08:06:31.185Z,2.00
2022-10-04T08:12:33.133Z,2.70
2022-10-04T08:18:00.060Z,2.28
2022-10-04T08:23:07.441Z,4.70
2022-10-04T08:28:43.211Z,2.53
2022-10-04T08:34:23.605Z,2.70
2022-10-04T08:39:44.158Z,1.33
2022-10-04T08:45:02.210Z,3.80
2022-10-04T08:50:38.101Z,5.35
2022-10-04T08:55:53.816Z,2.40
2022-10-04T09:01:07.218Z,4.38
2022-10-04T09:06:28.083Z,2.60
2022-10-04T09:11:55.340Z,3.03
2022-10-04T09:17:22.461Z,2.40
2022-10-04T09:22:47.218Z,1.90
2022-10-04T09:28:03.555Z,7.43
2022-10-04T09:33:43.068Z,1.73
2022-10-04T09:39:25.579Z,2.10
2022-10-04T09:44:34.009Z,2.55
2022-10-04T09:49:45.460Z,2.90
2022-10-04T09:55:22.866Z,1.33
2022-10-04T10:00:36.063Z,1.00
2022-10-04T10:06:01.865Z,2.13
2022-10-04T10:11:41.153Z,1.75
2022-10-04T10:17:00.222Z,2.95
2022-10-04T10:22:09.350Z,1.50
2022-10-04T10:27:26.281Z,1.23
2022-10-04T10:32:40.843Z,4.03
2022-10-04T10:38:02.307Z,1.70
2022-10-04T10:43:33.604Z,1.23
2022-10-04T10:48:53.355Z,2.75
2022-10-04T10:54:16.175Z,1.52
2022-10-04T10:59:50.634Z,2.50
2022-10-04T11:05:30.336Z,1.13
2022-10-04T11:11:00.008Z,1.77
2022-10-04T11:16:24.146Z,1.75
2022-10-04T11:21:45.217Z,3.72
2022-10-04T11:27:06.053Z,3.17
2022-10-04T11:32:31.417Z,1.02
2022-10-04T11:37:57.720Z,1.05
2022-10-04T11:43:04.853Z,0.73
2022-10-04T11:48:20.462Z,1.02
2022-10-04T11:53:33.668Z,0.98
2022-10-04T11:59:11.227Z,1.50
2022-10-04T12:04:44.854Z,1.00
2022-10-04T12:10:01.116Z,0.70
2022-10-04T12:15:41.294Z,0.88
2022-10-04T12:21:08.076Z,2.38
2022-10-04T12:26:19.303Z,0.70
2022-10-04T12:31:29.188Z,0.68
2022-10-04T12:36:42.086Z,0.98
2022-10-04T12:41:47.285Z,2.53
2022-10-04T12:46:55.354Z,2.15
2022-10-04T12:52:16.355Z,1.33
2022-10-04T12:57:27.709Z,1.45
2022-10-04T13:03:03.850Z,5.22
2022-10-04T13:08:27.753Z,2.55
2022-10-04T13:13:33.278Z,1.15
2022-10-04T13:18:50.573Z,2.25
2022-10-04T13:24:11.652Z,0.47
2022-10-04T13:29:33.204Z,1.27
2022-10-04T13:34:50.423Z,2.30
2022-10-04T13:39:55.515Z,0.70
2022-10-04T13:45:06.746Z,0.60
2022-10-04T13:50:27.378Z,0.60
2022-10-04T13:56:40.181Z,0.82
2022-10-04T14:02:03.866Z,1.27
2022-10-04T14:07:32.534Z,0.95
2022-10-04T14:12:49.891Z,0.77
2022-10-04T14:18:10.524Z,0.80
2022-10-04T14:23:35.243Z,1.02
2022-10-04T14:29:09.881Z,0.77
2022-10-04T14:34:12.150Z,1.48
2022-10-04T14:39:41.784Z,0.90
2022-10-04T14:45:01.496Z,2.95
2022-10-04T14:50:23.962Z,3.05
2022-10-04T14:55:27.168Z,2.03
2022-10-04T15:01:04.672Z,1.67
2022-10-04T15:06:13.814Z,1.30
2022-10-04T15:11:37.136Z,1.80
2022-10-04T15:16:42.828Z,3.38
2022-10-04T15:21:48.153Z,2.20
2022-10-04T15:27:27.381Z,1.95
2022-10-04T15:32:43.326Z,1.85
2022-10-04T15:38:20.136Z,1.92
2022-10-04T15:43:29.709Z,1.98
2022-10-04T15:48:59.722Z,6.15
2022-10-04T15:54:30.177Z,7.43
2022-10-04T15:59:47.532Z,13.73
2022-10-04T16:04:49.804Z,6.05
2022-10-04T16:10:45.873Z,4.82
2022-10-04T16:16:16.989Z,4.75
2022-10-04T16:21:35.900Z,4.60
2022-10-04T16:27:08.915Z,4.07
2022-10-04T16:32:26.042Z,11.27
2022-10-04T16:37:36.992Z,18.47
2022-10-04T16:42:45.191Z,26.00
2022-10-04T16:48:05.811Z,32.80
2022-10-04T16:53:32.144Z,37.72
2022-10-04T16:58:38.708Z,34.40
2022-10-04T17:03:48.850Z,36.63
2022-10-04T17:09:08.748Z,33.08
2022-10-04T17:14:33.341Z,22.27
2022-10-04T17:19:52.749Z,13.23
2022-10-04T17:25:19.471Z,10.95
2022-10-04T17:30:24.119Z,10.43
2022-10-04T17:35:48.077Z,14.43
2022-10-04T17:40:56.016Z,11.27
2022-10-04T17:46:16.261Z,16.33
2022-10-04T17:51:39.879Z,15.38
2022-10-04T17:57:09.505Z,28.17
2022-10-04T18:02:18.440Z,34.70
2022-10-04T18:07:37.890Z,21.00
2022-10-04T18:12:56.204Z,16.08
2022-10-04T18:18:12.538Z,14.40
2022-10-04T18:23:35.781Z,11.30
2022-10-04T18:28:38.380Z,15.30
2022-10-04T18:33:40.703Z,15.82
2022-10-04T18:39:14.460Z,22.02
2022-10-04T18:44:18.148Z,28.50
2022-10-04T18:49:51.474Z,29.73
2022-10-04T18:54:57.071Z,18.48
2022-10-04T19:00:30.550Z,18.85
2022-10-04T19:05:33.064Z,13.10
2022-10-04T19:10:40.670Z,13.00
2022-10-04T19:16:05.443Z,11.65
2022-10-04T19:21:19.161Z,9.90
2022-10-04T19:26:33.489Z,12.88
2022-10-04T19:32:02.951Z,12.65
2022-10-04T19:37:26.901Z,13.13
2022-10-04T19:42:38.575Z,11.75
2022-10-04T19:47:51.575Z,13.07
2022-10-04T19:52:59.639Z,10.00
2022-10-04T19:58:13.173Z,12.07
2022-10-04T20:03:15.510Z,11.18
2022-10-04T20:09:00.728Z,10.75
2022-10-04T20:14:07.789Z,20.17
2022-10-04T20:19:19.087Z,16.27
2022-10-04T20:24:36.394Z,13.95
2022-10-04T20:29:38.740Z,9.02
2022-10-04T20:34:42.088Z,10.27
2022-10-04T20:39:44.381Z,17.65
2022-10-04T20:44:55.597Z,11.43
2022-10-04T20:50:00.065Z,10.95
2022-10-04T20:55:03.019Z,11.57
2022-10-04T21:00:06.018Z,9.57
2022-10-04T21:05:23.602Z,9.30
2022-10-04T21:10:28.674Z,12.23
2022-10-04T21:15:31.017Z,12.95
2022-10-04T21:20:51.664Z,14.45
2022-10-04T21:26:23.245Z,11.93
2022-10-04T21:31:25.985Z,10.85
2022-10-04T21:36:28.358Z,13.18
2022-10-04T21:41:30.681Z,11.32
2022-10-04T21:46:32.968Z,13.63
2022-10-04T21:51:40.141Z,13.35
2022-10-04T21:56:42.452Z,10.20
2022-10-04T22:01:44.795Z,9.05
2022-10-04T22:06:48.509Z,12.38
2022-10-04T22:11:51.113Z,10.40
2022-10-04T22:16:53.485Z,16.80
2022-10-04T22:21:55.967Z,13.52
2022-10-04T22:26:58.338Z,14.02
2022-10-04T22:32:00.683Z,19.35
2022-10-04T22:37:03.337Z,22.75
2022-10-04T22:42:05.874Z,20.98
2022-10-04T22:47:12.652Z,17.67
2022-10-04T22:52:19.276Z,16.30
2022-10-04T22:57:21.830Z,17.90
2022-10-04T23:02:29.630Z,24.85
2022-10-04T23:07:37.425Z,20.15
2022-10-04T23:12:41.043Z,16.33
2022-10-04T23:17:43.388Z,16.17
2022-10-04T23:22:50.334Z,18.80
2022-10-04T23:27:52.934Z,13.55
2022-10-04T23:32:59.094Z,21.42
2022-10-04T23:38:07.105Z,14.68
2022-10-04T23:43:15.485Z,14.30
2022-10-04T23:48:22.635Z,13.20
2022-10-04T23:53:29.141Z,14.95
2022-10-04T23:58:35.167Z,16.52
